createdAt,value
2022-09-09T00:05:05.761Z,15.76
2022-09-09T00:10:35.089Z,15.72
2022-09-09T00:15:42.036Z,15.68
2022-09-09T00:20:58.313Z,15.65
2022-09-09T00:26:21.695Z,15.62
2022-09-09T00:31:29.347Z,15.58
2022-09-09T00:36:35.626Z,15.54
2022-09-09T00:41:50.470Z,15.51
2022-09-09T00:47:15.076Z,15.48
2022-09-09T00:52:27.890Z,15.47
2022-09-09T00:57:32.880Z,15.44
2022-09-09T01:03:03.337Z,15.42
2022-09-09T01:08:17.897Z,15.38
2022-09-09T01:13:25.995Z,15.34
2022-09-09T01:18:35.701Z,15.31
2022-09-09T01:24:06.952Z,15.28
2022-09-09T01:29:12.419Z,15.24
2022-09-09T01:34:16.439Z,15.21
2022-09-09T01:39:19.779Z,15.18
2022-09-09T01:44:23.365Z,15.14
2022-09-09T01:49:26.072Z,15.11
2022-09-09T01:54:32.867Z,15.08
2022-09-09T02:00:00.246Z,15.06
2022-09-09T02:05:05.947Z,15.02
2022-09-09T02:10:24.594Z,14.99
2022-09-09T02:15:43.771Z,14.95
2022-09-09T02:20:48.037Z,14.93
2022-09-09T02:25:53.947Z,14.93
2022-09-09T02:30:57.227Z,14.91
2022-09-09T02:36:04.558Z,14.91
2022-09-09T02:41:07.619Z,14.90
2022-09-09T02:46:22.207Z,14.86
2022-09-09T02:51:40.339Z,14.79
2022-09-09T02:56:51.484Z,14.71
2022-09-09T03:01:54.720Z,14.62
2022-09-09T03:06:57.995Z,14.53
2022-09-09T03:12:01.491Z,14.47
2022-09-09T03:17:04.384Z,14.35
2022-09-09T03:22:07.067Z,14.20
2022-09-09T03:27:09.781Z,14.05
2022-09-09T03:32:13.756Z,13.94
2022-09-09T03:37:20.943Z,13.84
2022-09-09T03:42:23.815Z,13.77
2022-09-09T03:47:26.707Z,13.72
2022-09-09T03:52:30.564Z,13.70
2022-09-09T03:57:35.981Z,13.69
2022-09-09T04:02:38.788Z,13.63
2022-09-09T04:07:41.712Z,13.60
2022-09-09T04:12:48.989Z,13.50
2022-09-09T04:17:52.217Z,13.41
2022-09-09T04:22:54.842Z,13.36
2022-09-09T04:27:59.271Z,13.28
2022-09-09T04:33:01.894Z,13.22
2022-09-09T04:38:05.995Z,13.20
2022-09-09T04:43:12.603Z,13.23
2022-09-09T04:48:17.144Z,13.23
2022-09-09T04:53:19.811Z,13.21
2022-09-09T04:58:23.656Z,13.12
2022-09-09T05:03:26.295Z,13.04
2022-09-09T05:08:28.985Z,12.93
2022-09-09T05:13:33.175Z,12.79
2022-09-09T05:18:35.943Z,12.73
2022-09-09T05:23:39.167Z,12.71
2022-09-09T05:28:41.934Z,12.65
2022-09-09T05:33:47.215Z,12.60
2022-09-09T05:38:51.002Z,12.54
2022-09-09T05:43:53.672Z,12.45
2022-09-09T05:48:56.380Z,12.41
2022-09-09T05:53:59.571Z,12.44
2022-09-09T05:59:02.584Z,12.47
2022-09-09T06:04:05.384Z,12.47
2022-09-09T06:09:11.167Z,12.45
2022-09-09T06:14:14.058Z,12.41
2022-09-09T06:19:17.064Z,12.42
2022-09-09T06:24:21.134Z,12.42
2022-09-09T06:29:23.869Z,12.41
2022-09-09T06:34:26.598Z,12.36
2022-09-09T06:39:29.507Z,12.29
2022-09-09T06:44:35.273Z,12.26
2022-09-09T06:49:38.376Z,12.27
2022-09-09T06:54:41.383Z,12.25
2022-09-09T06:59:44.050Z,12.28
2022-09-09T07:04:46.782Z,12.27
2022-09-09T07:09:50.307Z,12.29
2022-09-09T07:14:53.100Z,12.35
2022-09-09T07:19:55.785Z,12.34
2022-09-09T07:24:58.413Z,12.32
2022-09-09T07:30:01.073Z,12.30
2022-09-09T07:35:04.023Z,12.29
2022-09-09T07:40:07.290Z,12.27
2022-09-09T07:45:10.281Z,12.22
2022-09-09T07:50:13.034Z,12.21
2022-09-09T07:55:16.246Z,12.22
2022-09-09T08:00:20.561Z,12.26
2022-09-09T08:05:23.888Z,12.35
2022-09-09T08:10:26.695Z,12.35
2022-09-09T08:15:31.797Z,12.34
2022-09-09T08:20:37.914Z,12.34
2022-09-09T08:25:40.613Z,12.40
2022-09-09T08:30:43.820Z,12.51
2022-09-09T08:35:53.996Z,12.60
2022-09-09T08:41:08.391Z,12.66
2022-09-09T08:46:18.330Z,12.70
2022-09-09T08:51:21.341Z,12.72
2022-09-09T08:56:26.873Z,12.72
2022-09-09T09:01:35.678Z,12.71
2022-09-09T09:07:15.014Z,12.69
2022-09-09T09:12:22.928Z,12.67
2022-09-09T09:17:29.104Z,12.71
2022-09-09T09:22:44.420Z,12.73
2022-09-09T09:28:01.712Z,12.79
2022-09-09T09:33:16.834Z,12.80
2022-09-09T09:43:55.262Z,12.88
2022-09-09T09:49:06.875Z,12.95
2022-09-09T09:54:28.761Z,12.95
2022-09-09T09:59:40.836Z,12.97
2022-09-09T10:04:46.475Z,13.01
2022-09-09T10:09:58.135Z,13.04
2022-09-09T10:15:11.221Z,13.06
2022-09-09T10:20:20.338Z,13.08
2022-09-09T10:25:27.189Z,13.16
2022-09-09T10:30:44.639Z,13.27
2022-09-09T10:36:03.156Z,13.31
2022-09-09T10:41:37.217Z,13.34
2022-09-09T10:47:16.718Z,13.36
2022-09-09T10:52:48.948Z,13.40
2022-09-09T10:57:53.428Z,13.42
2022-09-09T11:03:03.712Z,13.45
2022-09-09T11:08:13.419Z,13.45
2022-09-09T11:13:25.759Z,13.41
2022-09-09T11:18:30.391Z,13.39
2022-09-09T11:23:45.059Z,13.35
2022-09-09T11:29:10.317Z,13.31
2022-09-09T11:34:21.603Z,13.26
2022-09-09T11:39:53.775Z,13.30
2022-09-09T11:44:57.743Z,13.33
2022-09-09T11:50:15.887Z,13.30
2022-09-09T11:55:29.958Z,13.29
2022-09-09T12:00:55.021Z,13.26
2022-09-09T12:05:59.114Z,13.28
2022-09-09T12:11:02.455Z,13.31
2022-09-09T12:16:06.570Z,13.32
2022-09-09T12:21:42.454Z,13.39
2022-09-09T12:26:54.249Z,13.49
2022-09-09T12:32:10.256Z,13.52
2022-09-09T12:37:25.340Z,13.53
2022-09-09T12:42:28.814Z,13.56
2022-09-09T12:47:52.862Z,13.55
2022-09-09T12:53:00.166Z,13.50
2022-09-09T12:58:06.583Z,13.47
2022-09-09T13:03:19.054Z,13.53
2022-09-09T13:08:21.880Z,13.59
2022-09-09T13:13:28.366Z,13.62
2022-09-09T13:18:33.324Z,13.58
2022-09-09T13:23:38.898Z,13.59
2022-09-09T13:28:41.785Z,13.60
2022-09-09T13:33:44.418Z,13.65
2022-09-09T13:38:53.449Z,13.67
2022-09-09T13:43:56.540Z,13.67
2022-09-09T13:49:01.489Z,13.65
2022-09-09T13:54:10.331Z,13.64
2022-09-09T13:59:15.898Z,13.62
2022-09-09T14:04:21.795Z,13.62
2022-09-09T14:09:24.468Z,13.63
2022-09-09T14:14:27.109Z,13.66
2022-09-09T14:19:29.881Z,13.70
2022-09-09T14:24:32.568Z,13.67
2022-09-09T14:29:35.188Z,13.58
2022-09-09T14:34:38.487Z,13.56
2022-09-09T14:39:41.211Z,13.58
2022-09-09T14:44:43.974Z,13.58
2022-09-09T14:49:47.371Z,13.59
2022-09-09T14:54:50.716Z,13.63
2022-09-09T14:59:54.583Z,13.67
2022-09-09T15:04:59.083Z,13.68
2022-09-09T15:10:01.868Z,13.64
2022-09-09T15:15:05.914Z,13.62
2022-09-09T15:20:09.719Z,13.66
2022-09-09T15:25:13.548Z,13.67
2022-09-09T15:30:16.229Z,13.68
2022-09-09T15:35:18.849Z,13.71
2022-09-09T15:40:21.690Z,13.74
2022-09-09T15:45:24.547Z,13.72
2022-09-09T15:50:27.805Z,13.68
2022-09-09T15:55:30.559Z,13.66
2022-09-09T16:00:35.510Z,13.65
2022-09-09T16:05:38.209Z,13.66
2022-09-09T16:10:41.535Z,13.65
2022-09-09T16:15:44.648Z,13.66
2022-09-09T16:20:55.852Z,13.64
2022-09-09T16:26:02.498Z,13.64
2022-09-09T16:31:08.987Z,13.62
2022-09-09T16:36:15.096Z,13.64
2022-09-09T16:41:17.773Z,13.66
2022-09-09T16:46:21.556Z,13.63
2022-09-09T16:51:27.813Z,13.60
2022-09-09T16:56:36.349Z,13.60
2022-09-09T17:01:44.396Z,13.63
2022-09-09T17:06:51.802Z,13.64
2022-09-09T17:11:55.902Z,13.60
2022-09-09T17:17:09.391Z,13.56
2022-09-09T17:22:21.777Z,13.51
2022-09-09T17:27:24.445Z,13.49
2022-09-09T17:32:27.094Z,13.47
2022-09-09T17:37:29.728Z,13.43
2022-09-09T17:42:32.458Z,13.42
2022-09-09T17:47:35.095Z,13.38
2022-09-09T17:52:38.279Z,13.29
2022-09-09T17:57:40.962Z,13.26
2022-09-09T18:02:44.235Z,13.25
2022-09-09T18:07:47.079Z,13.22
2022-09-09T18:12:49.778Z,13.18
2022-09-09T18:17:52.476Z,13.18
2022-09-09T18:22:55.377Z,13.17
2022-09-09T18:27:58.588Z,13.16
2022-09-09T18:33:01.285Z,13.11
2022-09-09T18:38:04.280Z,13.09
2022-09-09T18:43:08.016Z,13.13
2022-09-09T18:48:10.713Z,13.14
2022-09-09T18:53:15.784Z,13.15
2022-09-09T18:58:18.443Z,13.15
2022-09-09T19:03:21.164Z,13.18
2022-09-09T19:08:23.862Z,13.17
2022-09-09T19:13:27.379Z,13.12
2022-09-09T19:18:30.319Z,13.10
2022-09-09T19:23:33.126Z,13.09
2022-09-09T19:28:36.279Z,13.07
2022-09-09T19:33:39.089Z,13.08
2022-09-09T19:38:42.115Z,13.06
2022-09-09T19:43:46.085Z,13.07
2022-09-09T19:48:49.034Z,13.08
2022-09-09T19:53:58.082Z,13.06
2022-09-09T19:59:00.883Z,13.06
2022-09-09T20:04:06.030Z,13.08
2022-09-09T20:09:12.318Z,13.09
2022-09-09T20:14:16.283Z,13.07
2022-09-09T20:19:19.049Z,13.03
2022-09-09T20:24:24.103Z,13.03
2022-09-09T20:29:26.741Z,13.04
2022-09-09T20:34:30.089Z,13.03
2022-09-09T20:39:32.876Z,13.00
2022-09-09T20:44:35.626Z,12.98
2022-09-09T20:49:38.530Z,13.01
2022-09-09T20:54:42.035Z,13.02
2022-09-09T20:59:48.112Z,13.01
2022-09-09T21:04:50.773Z,13.02
2022-09-09T21:09:53.398Z,13.05
2022-09-09T21:14:56.107Z,13.05
2022-09-09T21:19:58.697Z,13.03
2022-09-09T21:25:01.401Z,13.02
2022-09-09T21:30:05.145Z,13.05
2022-09-09T21:35:08.521Z,13.05
2022-09-09T21:40:11.378Z,13.05
2022-09-09T21:45:14.718Z,13.06
2022-09-09T21:50:18.067Z,13.08
2022-09-09T21:55:21.597Z,13.08
2022-09-09T22:00:24.287Z,13.07
2022-09-09T22:05:27.434Z,13.06
2022-09-09T22:10:30.412Z,13.07
2022-09-09T22:15:34.102Z,13.05
2022-09-09T22:20:42.275Z,13.01
2022-09-09T22:25:45.010Z,13.01
2022-09-09T22:30:47.708Z,12.98
2022-09-09T22:35:50.547Z,12.95
2022-09-09T22:40:53.532Z,12.96
2022-09-09T22:45:56.197Z,12.97
2022-09-09T22:51:11.236Z,12.97
2022-09-09T22:56:17.413Z,12.98
2022-09-09T23:01:21.207Z,12.96
2022-09-09T23:06:26.914Z,12.93
2022-09-09T23:11:32.683Z,12.96
2022-09-09T23:16:46.661Z,12.96
2022-09-09T23:21:50.900Z,12.95
2022-09-09T23:26:53.575Z,12.95
2022-09-09T23:31:56.381Z,12.98
2022-09-09T23:36:59.121Z,13.01
2022-09-09T23:42:06.148Z,13.00
2022-09-09T23:47:09.968Z,12.99
2022-09-09T23:52:12.700Z,12.96
2022-09-09T23:57:15.334Z,12.94
